Flight Track Log - Related Links

Times and Time Zones

All times are in EDT time to prevent confusion due to time zone crossing. See the N421VA flight status page for this flight to view local times or setup timezone preferences in your user account.

Time Position Orientation Groundspeed Altitude Reporting Facility
EDT Latitude Longitude Course Direction KTS MPH feet Rate Location/Type
Mon 04:26:53 PM 41.5356 -81.6725 326° Northwest 140 161 1,300  Level Cleveland Center
Mon 04:27:12 PM 41.5433 -81.6794 326° Northwest 137 158 1,600 857 Climbing Cleveland Center
Mon 04:28:10 PM 41.5558 -81.7211 292° West 137 158 2,400 885 Climbing Cleveland Center
Mon 04:28:13 PM 41.5581 -81.7264 299° West 137 158 2,500 1,143 Climbing Cleveland Center
Mon 04:29:13 PM 41.5914 -81.7514 331° Northwest 141 162 3,600 1,043 Climbing Cleveland Center
Mon 04:30:08 PM 41.6258 -81.7656 343° North 139 160 4,500 885 Climbing Cleveland Center
Mon 04:30:14 PM 41.6261 -81.7647 66° East 139 160 4,500 885 Level Cleveland Center
Mon 04:31:09 PM 41.6250 -81.8186 268° West 142 163 5,400 952 Climbing Cleveland Center
Mon 04:31:17 PM 41.6242 -81.8217 250° West 142 163 5,500 885 Climbing Cleveland Center
Mon 04:32:10 PM 41.5967 -81.8531 220° Southwest 147 169 6,300 871 Climbing Cleveland Center
Mon 04:32:19 PM 41.5936 -81.8556 211° Southwest 147 169 6,400 900 Climbing Cleveland Center
Mon 04:33:10 PM 41.5642 -81.8869 219° Southwest 151 174 7,200 774 Climbing Cleveland Center
Mon 04:33:21 PM 41.5597 -81.8889 198° South 147 169 7,200 740 Level Cleveland Center
Mon 04:34:23 PM 41.5244 -81.9208 214° Southwest 148 170 8,100 919 Climbing Cleveland Center
Mon 04:35:25 PM 41.4831 -81.9336 193° South 150 173 9,100 919 Climbing Cleveland Center
Mon 04:36:27 PM 41.4406 -81.9389 185° South 150 173 10,000 871 Climbing Cleveland Center
Mon 04:37:29 PM 41.3911 -81.9447 185° South 151 174 10,900 823 Climbing Cleveland Center
Mon 04:38:31 PM 41.3467 -81.9500 185° South 153 176 11,700 726 Climbing Cleveland Center
Mon 04:39:33 PM 41.3017 -81.9528 183° South 159 183 12,400 768 Climbing Cleveland Center
Mon 04:40:36 PM 41.2575 -81.9614 188° South 159 183 13,300 720 Climbing Cleveland Center
Mon 04:41:38 PM 41.2131 -81.9728 191° South 160 184 13,900 339 Climbing Cleveland Center
Mon 04:42:40 PM 41.1636 -81.9844 190° South 177 204 14,000  Climbing Cleveland Center
Mon 04:43:42 PM 41.1025 -82.0058 195° South 188 216 13,900  Descending Cleveland Center
Mon 04:44:44 PM 41.0522 -82.0214 193° South 189 217 14,000 48 Climbing Cleveland Center
Mon 04:45:46 PM 41.0011 -82.0344 191° South 187 215 14,000 32 Level Cleveland Center
Mon 04:47:49 PM 40.8986 -82.0525 188° South 186 214 14,100  Climbing Indianapolis Center
Mon 04:48:51 PM 40.8469 -82.0639 189° South 186 214 14,000 -48 Descending Indianapolis Center
Mon 04:49:54 PM 40.7883 -82.0867 196° South 186 214 14,000 -48 Level Cleveland Center
Mon 04:50:56 PM 40.7403 -82.1103 200° South 185 213 13,900  Descending Cleveland Center
Mon 04:51:57 PM 40.6919 -82.1300 197° South 185 213 14,000 49 Climbing Indianapolis Center
Mon 04:52:59 PM 40.6433 -82.1486 196° South 184 212 14,000 48 Level Indianapolis Center
Mon 04:54:01 PM 40.5944 -82.1700 198° South 184 212 14,100 48 Climbing Indianapolis Center
Mon 04:55:03 PM 40.5456 -82.1886 196° South 184 212 14,100  Level Indianapolis Center
Mon 04:56:06 PM 40.4950 -82.2103 198° South 185 213 14,100  Level Indianapolis Center
Mon 04:57:08 PM 40.4450 -82.2281 195° South 185 213 14,100 -48 Level Indianapolis Center
Mon 04:58:10 PM 40.3875 -82.2539 199° South 185 213 14,000 -97 Descending Indianapolis Center
Mon 04:59:12 PM 40.3389 -82.2761 199° South 185 213 13,900 -145 Descending Indianapolis Center
Mon 05:00:14 PM 40.2864 -82.2939 194° South 186 214 13,700 -194 Descending Indianapolis Center
Mon 05:01:16 PM 40.2342 -82.3111 194° South 189 217 13,500 -289 Descending Indianapolis Center
Mon 05:01:37 PM 40.2094 -82.3214 198° South 194 223 13,300 -484 Descending Indianapolis Center
Mon 05:02:18 PM 40.1814 -82.3303 194° South 192 221 13,000 -492 Descending Indianapolis Center
Mon 05:02:38 PM 40.1553 -82.3406 197° South 198 228 12,800 -387 Descending Indianapolis Center
Mon 05:03:20 PM 40.1269 -82.3517 197° South 195 224 12,600 -358 Descending Indianapolis Center
Mon 05:03:45 PM 40.0989 -82.3622 196° South 201 231 12,400 -290 Descending Indianapolis Center
Mon 05:04:22 PM 40.0750 -82.3731 199° South 197 227 12,300 -327 Descending Indianapolis Center
Mon 05:04:40 PM 40.0508 -82.3822 196° South 200 230 12,100 -387 Descending Indianapolis Center
Mon 05:05:24 PM 40.0103 -82.3964 195° South 198 228 11,900 -393 Descending Indianapolis Center
Mon 05:05:41 PM 39.9964 -82.4039 202° Southwest 200 230 11,700 -387 Descending Indianapolis Center
Mon 05:06:26 PM 39.9564 -82.4203 197° South 202 232 11,500 -295 Descending Indianapolis Center
Mon 05:06:42 PM 39.9394 -82.4306 205° Southwest 202 232 11,400 -286 Descending Indianapolis Center
Mon 05:07:29 PM 39.9039 -82.4461 199° South 202 232 11,200 -327 Descending Indianapolis Center
Mon 05:07:37 PM 39.8911 -82.4533 203° Southwest 203 234 11,100 -194 Descending Indianapolis Center
Mon 05:08:31 PM 39.8531 -82.4708 199° South 202 232 11,000 -90 Descending Indianapolis Center
Mon 05:08:44 PM 39.8361 -82.4803 203° Southwest 196 226 11,000 -97 Level Indianapolis Center
Mon 05:09:33 PM 39.8019 -82.4928 196° South 199 229 10,900 -333 Descending Indianapolis Center
Mon 05:09:38 PM 39.7883 -82.4975 195° South 191 220 10,700 -677 Descending Indianapolis Center
Mon 05:10:35 PM 39.7469 -82.5106 194° South 199 229 10,200 -689 Descending Indianapolis Center
Mon 05:10:39 PM 39.7322 -82.5161 196° South 210 242 10,000 -1,161 Descending Indianapolis Center
Mon 05:11:37 PM 39.6783 -82.5331 194° South 205 236 9,000 -900 Descending Indianapolis Center
Mon 05:12:39 PM 39.6206 -82.5536 195° South 212 244 8,200 -823 Descending Indianapolis Center
Mon 05:13:41 PM 39.5639 -82.5717 194° South 212 244 7,300 -823 Descending Indianapolis Center
Mon 05:14:43 PM 39.5094 -82.5900 195° South 209 241 6,500 -677 Descending Indianapolis Center
Mon 05:15:45 PM 39.4522 -82.6050 191° South 209 241 5,900 -629 Descending Indianapolis Center
Mon 05:16:47 PM 39.3986 -82.6253 196° South 207 238 5,200 -435 Descending Indianapolis Center
Mon 05:17:49 PM 39.3375 -82.6472 196° South 198 228 5,000 -48 Descending Indianapolis Center
Mon 05:18:51 PM 39.2900 -82.6639 195° South 185 213 5,100 48 Climbing Indianapolis Center
Mon 05:19:54 PM 39.2439 -82.6789 194° South 179 206 5,100 -32 Level Indianapolis Center
Mon 05:21:58 PM 39.1542 -82.7261 201° Southwest 176 203 5,000 -290 Descending Indianapolis Center
Mon 05:23:00 PM 39.1092 -82.7556 207° Southwest 176 203 4,200 -484 Descending Indianapolis Center
Mon 05:24:02 PM 39.0522 -82.7917 206° Southwest 185 213 4,000 -194 Descending Indianapolis Center

Login

Don't have an account? Register now (free) for customized features, flight alerts, and more!